Time;durP1;ratioP1;P1;durP2;ratioP2;P2;SDS_P1;SDS_P2;PMS_P1;PMS_P2;Temp;Humidity;BMP_temperature;BMP_pressure;BME280_temperature;BME280_humidity;BME280_pressure;Samples;Min_cycle;Max_cycle;Signal;HPM_P1;HPM_P2
2023/01/08 00:00:25;;;;;;;2.50;1.48;;;12.40;90.10;;;;;;5053292;28;20044;-80
2023/01/08 00:02:50;;;;;;;3.03;1.67;;;12.30;90.10;;;;;;5054598;28;20610;-78
2023/01/08 00:05:16;;;;;;;2.35;1.48;;;12.30;90.40;;;;;;5057029;28;20435;-79
2023/01/08 00:07:41;;;;;;;2.88;1.70;;;12.40;90.30;;;;;;5056936;28;20036;-79
2023/01/08 00:10:07;;;;;;;3.15;1.80;;;12.40;90.20;;;;;;5055614;28;20021;-78
2023/01/08 00:12:33;;;;;;;2.67;1.65;;;12.40;90.30;;;;;;5056510;28;20029;-79
2023/01/08 00:14:58;;;;;;;2.75;1.70;;;12.30;90.30;;;;;;5055392;28;20048;-79
2023/01/08 00:17:24;;;;;;;2.95;1.90;;;12.40;90.30;;;;;;5055629;28;20017;-78
2023/01/08 00:19:49;;;;;;;4.10;1.92;;;12.30;90.30;;;;;;5055749;28;20025;-77
2023/01/08 00:22:15;;;;;;;2.65;1.50;;;12.40;90.40;;;;;;5054930;28;20029;-78
2023/01/08 00:24:40;;;;;;;2.60;1.48;;;12.40;90.20;;;;;;5056533;28;20056;-79
2023/01/08 00:27:06;;;;;;;2.97;1.70;;;12.30;90.30;;;;;;5056293;28;20108;-79
2023/01/08 00:29:31;;;;;;;3.25;1.75;;;12.40;90.30;;;;;;5055054;28;20029;-79
2023/01/08 00:31:57;;;;;;;3.25;1.83;;;12.40;90.20;;;;;;5054679;28;20075;-78
2023/01/08 00:34:23;;;;;;;3.53;1.80;;;12.40;90.20;;;;;;5055729;28;20052;-79
2023/01/08 00:36:48;;;;;;;3.70;1.73;;;12.30;90.10;;;;;;5054952;28;20025;-78
2023/01/08 00:39:14;;;;;;;3.35;1.77;;;12.30;90.10;;;;;;5055710;28;20378;-77
2023/01/08 00:41:43;;;;;;;2.50;1.50;;;12.40;90.20;;;;;;5055592;28;20033;-78
2023/01/08 00:44:08;;;;;;;3.10;1.70;;;12.40;90.20;;;;;;5054881;28;20021;-78
2023/01/08 00:46:33;;;;;;;3.53;1.77;;;12.40;90.10;;;;;;5056201;28;20469;-78
2023/01/08 00:48:59;;;;;;;3.05;1.88;;;12.40;90.10;;;;;;5056129;28;20036;-78
2023/01/08 00:51:25;;;;;;;2.92;1.67;;;12.40;90.10;;;;;;5054025;28;20131;-78
2023/01/08 00:53:50;;;;;;;3.08;1.70;;;12.30;90.20;;;;;;5054556;28;20095;-78
2023/01/08 00:56:16;;;;;;;2.63;1.48;;;12.40;90.30;;;;;;5055587;28;20039;-79
2023/01/08 00:58:41;;;;;;;3.67;1.85;;;12.40;90.30;;;;;;5055426;28;20017;-79
2023/01/08 01:01:14;;;;;;;3.60;1.88;;;12.40;90.20;;;;;;5055095;28;20469;-78
2023/01/08 01:03:40;;;;;;;2.47;1.40;;;12.30;90.10;;;;;;5055796;28;20128;-79
2023/01/08 01:06:06;;;;;;;2.80;1.60;;;12.40;90.20;;;;;;5056316;28;20143;-78
2023/01/08 01:08:33;;;;;;;3.33;1.80;;;12.40;90.30;;;;;;5054970;28;20051;-77
2023/01/08 01:10:58;;;;;;;3.50;1.70;;;12.40;90.30;;;;;;5053715;28;20060;-78
2023/01/08 01:13:24;;;;;;;3.17;1.67;;;12.40;90.10;;;;;;5054438;28;20464;-78
2023/01/08 01:15:59;;;;;;;2.47;1.58;;;12.40;90.20;;;;;;5055794;28;20039;-77
2023/01/08 01:18:25;;;;;;;2.47;1.60;;;12.30;90.20;;;;;;5055585;28;20025;-79
2023/01/08 01:20:51;;;;;;;3.10;1.60;;;12.30;90.30;;;;;;5056573;28;20488;-79
2023/01/08 01:23:16;;;;;;;3.13;1.60;;;12.40;90.30;;;;;;5054599;28;20017;-78
2023/01/08 01:25:42;;;;;;;2.92;1.73;;;12.30;90.30;;;;;;5054343;28;20028;-79
2023/01/08 01:28:08;;;;;;;2.95;1.80;;;12.30;90.20;;;;;;5053487;28;20378;-79
2023/01/08 01:30:33;;;;;;;2.75;1.50;;;12.30;90.20;;;;;;5055874;28;20025;-80
2023/01/08 01:32:59;;;;;;;3.47;1.75;;;12.40;90.20;;;;;;5055235;28;20439;-78
2023/01/08 01:35:24;;;;;;;3.42;1.92;;;12.40;90.20;;;;;;5054245;28;20029;-78
2023/01/08 01:37:49;;;;;;;2.78;1.60;;;12.30;90.20;;;;;;5054255;28;20027;-78
2023/01/08 01:40:15;;;;;;;2.95;1.70;;;12.40;90.20;;;;;;5055769;28;20029;-78
2023/01/08 01:42:42;;;;;;;3.30;1.60;;;12.30;90.10;;;;;;5055710;28;20036;-78
2023/01/08 01:45:21;;;;;;;3.08;1.73;;;12.40;90.20;;;;;;5052789;28;20040;-78
2023/01/08 01:47:53;;;;;;;3.05;1.50;;;12.30;90.20;;;;;;5053993;28;20493;-78
2023/01/08 01:50:34;;;;;;;2.72;1.63;;;12.30;90.30;;;;;;5052764;28;20056;-78
2023/01/08 01:53:16;;;;;;;3.70;1.80;;;12.30;90.20;;;;;;5055235;28;20083;-78
2023/01/08 01:55:44;;;;;;;3.15;1.60;;;12.30;90.30;;;;;;5053375;28;20040;-76
2023/01/08 01:58:27;;;;;;;3.70;1.80;;;12.30;90.30;;;;;;5054233;28;20028;-78
2023/01/08 02:00:56;;;;;;;3.40;1.80;;;12.30;90.30;;;;;;5055578;28;20082;-78
2023/01/08 02:03:25;;;;;;;2.88;1.80;;;12.30;90.30;;;;;;5054872;28;20503;-78
2023/01/08 02:06:11;;;;;;;4.15;1.90;;;12.30;90.30;;;;;;5055564;28;20456;-78
2023/01/08 02:09:00;;;;;;;2.63;1.65;;;12.30;90.30;;;;;;5053650;28;20465;-79
2023/01/08 02:12:16;;;;;;;2.80;1.67;;;12.30;90.30;;;;;;5052699;28;20124;-80
2023/01/08 02:14:48;;;;;;;2.72;1.60;;;12.30;90.30;;;;;;5053071;28;20445;-79
2023/01/08 02:17:21;;;;;;;3.50;1.60;;;12.30;90.30;;;;;;5054846;28;20067;-78
2023/01/08 02:20:01;;;;;;;3.40;1.80;;;12.40;90.30;;;;;;5053920;28;20390;-79
2023/01/08 02:23:09;;;;;;;3.25;1.75;;;12.30;90.50;;;;;;5053648;28;20465;-78
2023/01/08 02:26:02;;;;;;;2.92;1.67;;;12.30;90.30;;;;;;5057786;28;20061;-80
2023/01/08 02:28:31;;;;;;;2.25;1.42;;;12.30;90.30;;;;;;5056918;28;20029;-80
2023/01/08 02:30:57;;;;;;;3.17;1.70;;;12.30;90.30;;;;;;5058315;28;20572;-80
2023/01/08 02:33:23;;;;;;;3.20;1.60;;;12.30;90.30;;;;;;5056867;28;20025;-79
2023/01/08 02:35:54;;;;;;;2.45;1.65;;;12.30;90.30;;;;;;5058277;28;20385;-79
2023/01/08 02:38:21;;;;;;;3.28;1.67;;;12.30;90.30;;;;;;5057704;28;20024;-79
2023/01/08 02:41:09;;;;;;;2.85;1.60;;;12.40;90.40;;;;;;5058295;28;20499;-79
2023/01/08 02:43:44;;;;;;;2.75;1.60;;;12.30;90.30;;;;;;5058194;28;20108;-80
2023/01/08 02:46:13;;;;;;;2.92;1.65;;;12.40;90.30;;;;;;5057763;28;20022;-79
2023/01/08 02:48:47;;;;;;;3.58;1.55;;;12.30;90.30;;;;;;5056413;28;20066;-78
2023/01/08 02:51:23;;;;;;;3.38;1.80;;;12.30;90.20;;;;;;5052799;28;20076;-78
2023/01/08 02:53:53;;;;;;;3.22;1.70;;;12.30;90.30;;;;;;5054639;28;20025;-79
2023/01/08 02:56:23;;;;;;;3.47;1.80;;;12.30;90.30;;;;;;5056706;28;20033;-78
2023/01/08 02:58:51;;;;;;;2.83;1.55;;;12.40;90.40;;;;;;5056330;28;20025;-80
2023/01/08 03:01:18;;;;;;;2.38;1.45;;;12.30;90.30;;;;;;5052241;28;20029;-78
2023/01/08 03:03:51;;;;;;;2.95;1.73;;;12.30;90.30;;;;;;5053746;28;20550;-79
2023/01/08 03:06:18;;;;;;;2.70;1.50;;;12.30;90.40;;;;;;5055553;28;20575;-79
2023/01/08 03:08:47;;;;;;;3.03;1.58;;;12.30;90.30;;;;;;5056080;28;20021;-79
2023/01/08 03:11:16;;;;;;;2.20;1.50;;;12.40;90.40;;;;;;5055282;28;20021;-80
2023/01/08 03:13:52;;;;;;;3.13;1.63;;;12.30;90.30;;;;;;5057320;28;20085;-80
2023/01/08 03:16:24;;;;;;;2.55;1.52;;;12.30;90.40;;;;;;5058304;28;20052;-79
2023/01/08 03:19:01;;;;;;;2.65;1.60;;;12.30;90.40;;;;;;5058477;28;20459;-79
2023/01/08 03:21:27;;;;;;;3.45;1.80;;;12.30;90.40;;;;;;5056393;28;20504;-79
2023/01/08 03:23:53;;;;;;;2.80;1.58;;;12.30;90.40;;;;;;5056595;28;20033;-78
2023/01/08 03:26:25;;;;;;;2.72;1.60;;;12.30;90.40;;;;;;5058007;28;20029;-79
2023/01/08 03:28:53;;;;;;;2.58;1.40;;;12.40;90.40;;;;;;5052568;28;20028;-79
2023/01/08 03:31:22;;;;;;;3.22;1.60;;;12.30;90.40;;;;;;5054720;28;20061;-79
2023/01/08 03:33:48;;;;;;;2.40;1.30;;;12.30;90.40;;;;;;5056582;28;20024;-78
2023/01/08 03:36:17;;;;;;;2.90;1.75;;;12.40;90.40;;;;;;5067209;28;20020;-80
2023/01/08 03:38:53;;;;;;;2.33;1.40;;;12.30;90.40;;;;;;5081436;28;20048;-79
2023/01/08 03:41:20;;;;;;;2.38;1.45;;;12.30;90.40;;;;;;5079889;28;20078;-79
2023/01/08 03:43:46;;;;;;;3.08;1.65;;;12.30;90.40;;;;;;5079364;28;20039;-79
2023/01/08 03:46:18;;;;;;;2.58;1.40;;;12.30;90.40;;;;;;5079445;28;20028;-79
2023/01/08 03:48:45;;;;;;;2.50;1.42;;;12.30;90.40;;;;;;5078488;28;20029;-79
2023/01/08 03:51:11;;;;;;;3.05;1.60;;;12.30;90.40;;;;;;5079316;28;20063;-78
2023/01/08 03:53:36;;;;;;;2.30;1.30;;;12.30;90.70;;;;;;5078958;28;20096;-79
2023/01/08 03:56:02;;;;;;;2.75;1.40;;;12.30;90.40;;;;;;5077936;28;20505;-80
2023/01/08 03:58:28;;;;;;;2.92;1.50;;;12.30;90.40;;;;;;5077848;28;20472;-78
2023/01/08 04:00:53;;;;;;;2.47;1.50;;;12.30;90.40;;;;;;5079217;28;20035;-80
2023/01/08 04:03:19;;;;;;;2.88;1.55;;;12.30;90.40;;;;;;5079360;28;20104;-80
2023/01/08 04:05:44;;;;;;;2.45;1.45;;;12.30;90.40;;;;;;5079601;28;20021;-80
2023/01/08 04:08:10;;;;;;;2.13;1.30;;;12.30;90.50;;;;;;5079466;28;20535;-78
2023/01/08 04:10:35;;;;;;;2.08;1.40;;;12.30;90.40;;;;;;5076473;28;20032;-78
2023/01/08 04:13:01;;;;;;;2.92;1.60;;;12.30;90.40;;;;;;5078158;28;20052;-78
2023/01/08 04:15:27;;;;;;;2.38;1.40;;;12.30;90.40;;;;;;5079630;28;20029;-81
2023/01/08 04:17:53;;;;;;;2.78;1.40;;;12.30;90.40;;;;;;5079739;28;20025;-78
2023/01/08 04:20:18;;;;;;;2.30;1.40;;;12.30;90.40;;;;;;5075448;28;20023;-79
2023/01/08 04:22:44;;;;;;;2.38;1.30;;;12.30;90.40;;;;;;5076338;28;20031;-78
2023/01/08 04:25:10;;;;;;;2.25;1.38;;;12.30;90.40;;;;;;5077047;28;20032;-78
2023/01/08 04:27:35;;;;;;;2.42;1.20;;;12.30;90.40;;;;;;5077079;28;20056;-79
2023/01/08 04:30:01;;;;;;;2.30;1.40;;;12.30;90.40;;;;;;5076949;28;20025;-79
2023/01/08 04:32:26;;;;;;;2.30;1.45;;;12.30;90.40;;;;;;5076655;28;20116;-79
2023/01/08 04:34:52;;;;;;;2.40;1.42;;;12.30;90.40;;;;;;5076449;28;20481;-78
2023/01/08 04:37:17;;;;;;;3.15;1.55;;;12.30;90.40;;;;;;5077593;28;20397;-79
2023/01/08 04:39:43;;;;;;;2.22;1.40;;;12.30;90.40;;;;;;5076544;28;20021;-79
2023/01/08 04:42:08;;;;;;;2.13;1.35;;;12.30;90.40;;;;;;5076869;28;20504;-79
2023/01/08 04:44:34;;;;;;;2.33;1.40;;;12.30;90.40;;;;;;5077928;28;20032;-79
2023/01/08 04:46:59;;;;;;;2.22;1.30;;;12.30;90.40;;;;;;5077561;28;20027;-78
2023/01/08 04:49:24;;;;;;;2.60;1.40;;;12.30;90.40;;;;;;5077537;28;20032;-78
2023/01/08 04:51:50;;;;;;;2.70;1.50;;;12.30;90.40;;;;;;5075606;28;20089;-81
2023/01/08 04:54:16;;;;;;;2.13;1.38;;;12.30;90.40;;;;;;5071915;28;20421;-80
2023/01/08 04:56:41;;;;;;;1.77;1.30;;;12.30;90.40;;;;;;5055431;28;20044;-78
2023/01/08 04:59:06;;;;;;;2.00;1.30;;;12.30;90.40;;;;;;5054470;28;20025;-78
2023/01/08 05:01:32;;;;;;;2.30;1.35;;;12.30;90.40;;;;;;5054662;28;20489;-78
2023/01/08 05:04:01;;;;;;;2.00;1.25;;;12.30;90.70;;;;;;5055889;28;20543;-78
2023/01/08 05:06:28;;;;;;;2.05;1.40;;;12.30;90.40;;;;;;5056540;28;20115;-78
2023/01/08 05:08:54;;;;;;;1.73;1.10;;;12.30;90.40;;;;;;5055929;28;20111;-80
2023/01/08 05:11:20;;;;;;;1.80;1.20;;;12.30;90.40;;;;;;5056295;28;20071;-79
2023/01/08 05:13:50;;;;;;;2.20;1.33;;;12.30;90.40;;;;;;5056298;28;20033;-78
2023/01/08 05:16:16;;;;;;;2.85;1.42;;;12.30;90.40;;;;;;5054947;28;20116;-78
2023/01/08 05:18:42;;;;;;;2.22;1.30;;;12.30;90.40;;;;;;5053889;28;20636;-78
2023/01/08 05:21:07;;;;;;;2.38;1.35;;;12.30;90.40;;;;;;5056008;28;20095;-78
2023/01/08 05:23:33;;;;;;;2.53;1.20;;;12.30;90.40;;;;;;5054479;28;20024;-78
2023/01/08 05:26:00;;;;;;;2.20;1.30;;;12.30;90.40;;;;;;5056209;28;20088;-78
2023/01/08 05:28:26;;;;;;;2.65;1.25;;;12.30;90.40;;;;;;5054418;28;20078;-78
2023/01/08 05:30:52;;;;;;;2.35;1.38;;;12.30;90.40;;;;;;5055263;28;20425;-79
2023/01/08 05:33:18;;;;;;;2.38;1.20;;;12.30;90.40;;;;;;5052432;28;20025;-78
2023/01/08 05:35:44;;;;;;;2.45;1.23;;;12.30;90.40;;;;;;5067801;28;20078;-78
2023/01/08 05:38:09;;;;;;;2.47;1.33;;;12.30;90.40;;;;;;5074954;28;20046;-79
2023/01/08 05:40:35;;;;;;;3.03;1.40;;;12.30;90.40;;;;;;5074521;28;20473;-80
2023/01/08 05:43:01;;;;;;;2.20;1.35;;;12.30;90.40;;;;;;5073972;28;20024;-80
2023/01/08 05:45:26;;;;;;;2.15;1.27;;;12.30;90.40;;;;;;5077590;28;20388;-80
2023/01/08 05:47:53;;;;;;;3.03;1.30;;;12.30;90.30;;;;;;5073129;28;20563;-77
2023/01/08 05:50:18;;;;;;;2.17;1.30;;;12.30;90.40;;;;;;5072188;28;20027;-79
2023/01/08 05:52:44;;;;;;;1.80;1.20;;;12.20;90.30;;;;;;5072088;28;20032;-78
2023/01/08 05:55:10;;;;;;;2.38;1.20;;;12.30;90.40;;;;;;5081972;28;20024;-85
2023/01/08 05:57:35;;;;;;;2.33;1.30;;;12.30;90.40;;;;;;5073457;28;20024;-77
2023/01/08 06:00:01;;;;;;;2.47;1.45;;;12.30;90.40;;;;;;5071132;28;20477;-78
2023/01/08 06:02:26;;;;;;;1.98;1.15;;;12.30;90.40;;;;;;5072915;28;20029;-76
2023/01/08 06:04:52;;;;;;;1.90;1.30;;;12.30;90.40;;;;;;5072302;28;20027;-81
2023/01/08 06:07:17;;;;;;;2.00;1.27;;;12.30;90.40;;;;;;5073092;28;20728;-77
2023/01/08 06:09:43;;;;;;;2.25;1.30;;;12.30;90.40;;;;;;5070534;28;20028;-76
2023/01/08 06:12:08;;;;;;;1.85;1.17;;;12.30;90.40;;;;;;5068760;28;20025;-82
2023/01/08 06:14:34;;;;;;;2.20;1.30;;;12.30;90.40;;;;;;5067640;28;20032;-79
2023/01/08 06:16:59;;;;;;;2.03;1.17;;;12.30;90.40;;;;;;5065047;28;20032;-78
2023/01/08 06:19:25;;;;;;;2.67;1.35;;;12.30;90.40;;;;;;5068639;28;20086;-79
2023/01/08 06:21:50;;;;;;;2.05;1.38;;;12.30;90.40;;;;;;5066338;28;20029;-76
2023/01/08 06:24:16;;;;;;;2.38;1.30;;;12.30;90.40;;;;;;5068110;28;20040;-75
2023/01/08 06:26:41;;;;;;;3.03;1.08;;;12.30;90.40;;;;;;5067516;28;20503;-77
2023/01/08 06:29:07;;;;;;;2.10;1.13;;;12.30;90.40;;;;;;5067293;28;20058;-79
2023/01/08 06:31:33;;;;;;;2.72;1.40;;;12.30;90.40;;;;;;5067179;28;20050;-75
2023/01/08 06:33:58;;;;;;;2.17;1.30;;;12.30;90.40;;;;;;5059586;28;20025;-77
2023/01/08 06:36:24;;;;;;;2.33;1.25;;;12.30;90.40;;;;;;5047328;28;20082;-77
2023/01/08 06:38:49;;;;;;;3.28;1.60;;;12.30;90.40;;;;;;5046943;28;20036;-81
2023/01/08 06:41:15;;;;;;;1.33;1.02;;;12.30;90.40;;;;;;5064096;28;20021;-77
2023/01/08 06:43:40;;;;;;;1.67;1.10;;;12.30;90.60;;;;;;5062418;28;20036;-80
2023/01/08 06:46:07;;;;;;;2.40;1.30;;;12.30;90.40;;;;;;5047497;28;20025;-77
2023/01/08 06:48:33;;;;;;;1.83;1.10;;;12.30;90.40;;;;;;5047160;28;20488;-77
2023/01/08 06:51:00;;;;;;;1.60;1.10;;;12.30;90.40;;;;;;5047321;28;20170;-79
2023/01/08 06:53:25;;;;;;;1.85;1.20;;;12.30;90.40;;;;;;5050426;28;20036;-77
2023/01/08 06:55:55;;;;;;;1.80;1.00;;;12.30;90.40;;;;;;5048254;28;20029;-78
2023/01/08 06:58:22;;;;;;;1.77;1.10;;;12.20;90.40;;;;;;5047158;28;20049;-79
2023/01/08 07:00:48;;;;;;;1.48;1.05;;;12.30;90.40;;;;;;5048704;28;20508;-78
2023/01/08 07:03:13;;;;;;;1.88;1.17;;;12.30;90.40;;;;;;5047120;28;20029;-78
2023/01/08 07:05:39;;;;;;;1.75;1.13;;;12.30;90.40;;;;;;5048663;28;20396;-78
2023/01/08 07:08:04;;;;;;;1.88;1.10;;;12.30;90.40;;;;;;5047083;28;20511;-76
2023/01/08 07:10:30;;;;;;;1.63;1.00;;;12.30;90.40;;;;;;5049246;28;20491;-76
2023/01/08 07:12:56;;;;;;;1.40;1.00;;;12.30;90.50;;;;;;5050579;28;20025;-79
2023/01/08 07:15:22;;;;;;;1.70;1.02;;;12.30;90.50;;;;;;5051287;28;20021;-78
2023/01/08 07:17:47;;;;;;;1.92;1.10;;;12.30;90.40;;;;;;5050836;28;20839;-78
2023/01/08 07:20:13;;;;;;;2.03;1.10;;;12.30;90.40;;;;;;5052330;28;20036;-76
2023/01/08 07:22:38;;;;;;;1.52;1.00;;;12.30;90.40;;;;;;5052014;28;20029;-77
2023/01/08 07:25:04;;;;;;;2.17;1.00;;;12.30;90.40;;;;;;5052349;28;20032;-81
2023/01/08 07:27:30;;;;;;;1.42;0.93;;;12.30;90.40;;;;;;5052249;28;20118;-83
2023/01/08 07:29:55;;;;;;;1.50;1.00;;;12.30;90.30;;;;;;5052111;28;20552;-77
2023/01/08 07:32:21;;;;;;;2.22;1.10;;;12.30;90.40;;;;;;5050665;28;20027;-79
2023/01/08 07:34:47;;;;;;;1.77;1.10;;;12.30;90.40;;;;;;5050520;28;20040;-77
2023/01/08 07:37:13;;;;;;;1.60;0.95;;;12.30;90.40;;;;;;5050886;28;20163;-77
2023/01/08 07:39:38;;;;;;;1.55;1.08;;;12.30;90.50;;;;;;5052005;28;20021;-76
2023/01/08 07:42:04;;;;;;;2.58;1.20;;;12.30;90.50;;;;;;5051315;28;20123;-76
2023/01/08 07:44:29;;;;;;;1.48;1.00;;;12.30;90.50;;;;;;5054465;28;20813;-78
2023/01/08 07:46:55;;;;;;;1.88;1.13;;;12.30;90.40;;;;;;5052312;28;20040;-77
2023/01/08 07:49:20;;;;;;;1.77;1.13;;;12.30;90.40;;;;;;5050566;28;20024;-79
2023/01/08 07:51:48;;;;;;;1.38;1.00;;;12.30;90.40;;;;;;5050406;28;20036;-77
2023/01/08 07:54:13;;;;;;;1.70;1.10;;;12.30;90.40;;;;;;5050370;28;20057;-77
2023/01/08 07:56:39;;;;;;;2.60;1.00;;;12.30;90.40;;;;;;5051649;28;20084;-77
2023/01/08 07:59:04;;;;;;;1.90;1.10;;;12.30;90.40;;;;;;5050183;28;20074;-77
2023/01/08 08:01:30;;;;;;;1.50;1.00;;;12.30;90.50;;;;;;5051431;28;20037;-77
2023/01/08 08:03:56;;;;;;;1.48;0.90;;;12.30;90.50;;;;;;5054023;28;20086;-76
2023/01/08 08:06:21;;;;;;;1.30;0.82;;;12.30;90.40;;;;;;5070085;28;20032;-77
2023/01/08 08:08:47;;;;;;;2.15;1.20;;;12.30;90.40;;;;;;5071716;28;20033;-79
2023/01/08 08:11:12;;;;;;;1.50;1.02;;;12.30;90.40;;;;;;5070177;28;20035;-79
2023/01/08 08:13:41;;;;;;;1.90;1.00;;;12.30;90.40;;;;;;5071340;28;20522;-76
2023/01/08 08:16:07;;;;;;;1.90;1.10;;;12.30;90.50;;;;;;5070207;28;20025;-78
2023/01/08 08:18:32;;;;;;;1.05;0.90;;;12.30;90.50;;;;;;5071126;28;20032;-80
2023/01/08 08:20:58;;;;;;;1.40;1.00;;;12.30;90.50;;;;;;5070067;28;20021;-77
2023/01/08 08:23:24;;;;;;;1.65;0.90;;;12.30;90.40;;;;;;5070522;28;20032;-78
2023/01/08 08:25:50;;;;;;;1.30;0.90;;;12.30;90.40;;;;;;5069959;28;20511;-78
2023/01/08 08:28:16;;;;;;;5.40;1.27;;;12.30;90.40;;;;;;5070484;28;20033;-80
2023/01/08 08:30:42;;;;;;;1.27;0.90;;;12.30;90.40;;;;;;5072533;28;20043;-78
2023/01/08 08:33:07;;;;;;;1.20;0.80;;;12.30;90.30;;;;;;5070715;28;20081;-79
2023/01/08 08:35:33;;;;;;;1.42;0.90;;;12.30;90.30;;;;;;5071783;28;20028;-78
2023/01/08 08:37:59;;;;;;;1.60;0.93;;;12.30;90.40;;;;;;5071463;28;20028;-77
2023/01/08 08:40:26;;;;;;;1.85;0.90;;;12.30;90.30;;;;;;5067244;28;20074;-76
2023/01/08 08:42:59;;;;;;;1.38;1.00;;;12.30;90.40;;;;;;5060250;28;20021;-78
2023/01/08 08:45:25;;;;;;;1.73;0.90;;;12.30;90.40;;;;;;5059613;28;20032;-84
2023/01/08 08:47:51;;;;;;;1.90;0.88;;;12.30;90.40;;;;;;5054645;28;20048;-77
2023/01/08 08:50:17;;;;;;;1.67;0.90;;;12.30;90.40;;;;;;5049632;28;20481;-80
2023/01/08 08:52:44;;;;;;;2.53;1.10;;;12.30;90.40;;;;;;5057363;28;20035;-76
2023/01/08 08:55:14;;;;;;;0.95;0.70;;;12.30;90.40;;;;;;5070281;28;20039;-75
2023/01/08 08:57:39;;;;;;;1.27;0.90;;;12.20;90.40;;;;;;5068947;28;20039;-77
2023/01/08 09:00:05;;;;;;;1.48;0.95;;;12.30;90.40;;;;;;5070838;28;20024;-78
2023/01/08 09:02:31;;;;;;;1.35;0.85;;;12.30;90.30;;;;;;5070009;28;20039;-80
2023/01/08 09:04:56;;;;;;;1.35;0.93;;;12.30;90.40;;;;;;5069433;28;20059;-78
2023/01/08 09:07:22;;;;;;;1.15;0.88;;;12.30;90.40;;;;;;5069225;28;20028;-79
2023/01/08 09:09:47;;;;;;;1.67;0.80;;;12.30;90.30;;;;;;5069161;28;20032;-78
2023/01/08 09:12:13;;;;;;;1.40;0.80;;;12.30;90.30;;;;;;5069086;28;20028;-79
2023/01/08 09:14:38;;;;;;;1.05;0.90;;;12.30;90.40;;;;;;5068493;28;20398;-76
2023/01/08 09:17:03;;;;;;;1.30;0.90;;;12.30;90.30;;;;;;5070232;28;20473;-77
2023/01/08 09:19:29;;;;;;;1.83;0.95;;;12.30;90.30;;;;;;5068838;28;20033;-82
2023/01/08 09:21:54;;;;;;;9.07;1.30;;;12.30;90.30;;;;;;5070732;28;20025;-77
2023/01/08 09:24:20;;;;;;;5.10;1.10;;;12.20;89.70;;;;;;5068783;28;20032;-78
2023/01/08 09:26:45;;;;;;;5.82;1.00;;;12.20;87.20;;;;;;5068305;28;20043;-81
2023/01/08 09:29:11;;;;;;;2.08;0.73;;;12.10;85.70;;;;;;5080756;28;20650;-85
2023/01/08 09:31:36;;;;;;;4.20;1.00;;;12.00;85.90;;;;;;5074470;28;20033;-77
2023/01/08 09:34:02;;;;;;;3.72;0.80;;;12.00;86.30;;;;;;5068455;28;20029;-77
2023/01/08 09:36:28;;;;;;;4.90;0.90;;;12.10;86.50;;;;;;5065177;28;20194;-80
2023/01/08 09:38:53;;;;;;;3.03;0.88;;;12.10;86.30;;;;;;5064328;28;20025;-78
2023/01/08 09:41:24;;;;;;;5.13;0.80;;;12.20;86.60;;;;;;5064451;28;20495;-78
2023/01/08 09:43:53;;;;;;;4.70;1.10;;;12.20;86.80;;;;;;5065232;28;20028;-77
2023/01/08 09:46:21;;;;;;;2.75;0.90;;;12.20;86.80;;;;;;5063946;28;20024;-81
2023/01/08 09:48:47;;;;;;;2.97;0.73;;;12.20;86.90;;;;;;5065470;28;20364;-77
2023/01/08 09:51:16;;;;;;;2.45;0.73;;;12.30;86.90;;;;;;5065582;28;20039;-81
2023/01/08 09:53:43;;;;;;;4.88;0.90;;;12.30;87.00;;;;;;5065127;28;20027;-80
2023/01/08 09:56:15;;;;;;;1.95;0.90;;;12.30;87.20;;;;;;5065556;28;20040;-78
2023/01/08 09:58:57;;;;;;;1.85;0.77;;;12.30;87.30;;;;;;5065477;28;20051;-77
2023/01/08 10:01:28;;;;;;;2.58;0.60;;;12.30;87.40;;;;;;5065580;28;20044;-84
2023/01/08 10:04:22;;;;;;;2.72;0.90;;;12.30;87.50;;;;;;5066257;28;20477;-83
2023/01/08 10:06:55;;;;;;;2.63;0.85;;;12.30;87.60;;;;;;5066202;28;20032;-77
2023/01/08 10:09:25;;;;;;;2.67;0.80;;;12.30;87.60;;;;;;5065615;28;20485;-80
2023/01/08 10:11:53;;;;;;;3.35;0.77;;;12.40;87.70;;;;;;5066361;28;20059;-80
2023/01/08 10:14:26;;;;;;;1.55;0.70;;;12.40;87.50;;;;;;5064972;28;20046;-77
2023/01/08 10:16:59;;;;;;;2.15;0.85;;;12.40;87.50;;;;;;5065638;28;20031;-78
2023/01/08 10:19:25;;;;;;;4.35;0.85;;;12.50;87.60;;;;;;5065355;28;20020;-79
2023/01/08 10:21:51;;;;;;;2.03;0.70;;;12.50;87.70;;;;;;5064683;28;20024;-80
2023/01/08 10:24:30;;;;;;;2.13;1.05;;;12.50;87.60;;;;;;5065101;28;20119;-79
2023/01/08 10:27:14;;;;;;;3.40;0.80;;;12.50;87.60;;;;;;5065159;28;20082;-77
2023/01/08 10:29:40;;;;;;;3.28;0.80;;;12.60;87.70;;;;;;5065008;28;20295;-77
2023/01/08 10:32:31;;;;;;;3.00;0.70;;;12.60;87.40;;;;;;5065146;28;20033;-78
2023/01/08 10:34:57;;;;;;;1.63;0.50;;;12.60;87.50;;;;;;5056987;28;20538;-78
2023/01/08 10:37:28;;;;;;;3.15;1.00;;;12.70;88.00;;;;;;5065048;28;20024;-76
2023/01/08 10:40:07;;;;;;;2.15;0.50;;;12.70;87.40;;;;;;5064636;28;20040;-79
2023/01/08 10:42:35;;;;;;;1.95;0.75;;;12.70;87.40;;;;;;5063714;28;20301;-77
2023/01/08 10:45:10;;;;;;;2.63;0.70;;;12.70;87.40;;;;;;5064896;28;20028;-77
2023/01/08 10:47:37;;;;;;;1.10;0.60;;;12.80;87.30;;;;;;5064593;28;20484;-79
2023/01/08 10:50:05;;;;;;;2.42;0.65;;;12.80;87.20;;;;;;5064490;28;20039;-77
2023/01/08 10:52:33;;;;;;;1.85;0.80;;;12.80;87.00;;;;;;5064532;28;20051;-79
2023/01/08 10:55:20;;;;;;;3.15;0.88;;;12.90;86.90;;;;;;5065859;28;20019;-81
2023/01/08 10:58:00;;;;;;;1.65;0.70;;;12.90;86.60;;;;;;5064791;28;20040;-83
2023/01/08 11:00:29;;;;;;;1.45;0.70;;;13.00;86.50;;;;;;5066379;28;20028;-77
2023/01/08 11:02:57;;;;;;;1.90;0.68;;;13.00;86.40;;;;;;5064231;28;20123;-80
2023/01/08 11:05:31;;;;;;;1.67;0.68;;;13.00;86.40;;;;;;5066360;28;20086;-82
2023/01/08 11:07:59;;;;;;;0.93;0.52;;;13.10;86.20;;;;;;5064497;28;20025;-85
2023/01/08 11:10:27;;;;;;;1.15;0.65;;;13.10;86.20;;;;;;5066301;28;20036;-77
2023/01/08 11:13:03;;;;;;;1.20;0.60;;;13.10;86.20;;;;;;5064334;28;20032;-77
2023/01/08 11:15:35;;;;;;;3.05;0.80;;;13.10;86.20;;;;;;5066063;28;20027;-78
2023/01/08 11:18:10;;;;;;;1.00;0.40;;;13.10;86.10;;;;;;5064509;28;20027;-83
2023/01/08 11:20:37;;;;;;;2.60;0.68;;;13.10;86.10;;;;;;5065035;28;20025;-77
2023/01/08 11:23:21;;;;;;;2.22;0.73;;;13.20;86.20;;;;;;5066301;28;20408;-83
2023/01/08 11:26:08;;;;;;;19.70;2.10;;;13.20;85.90;;;;;;5066373;28;20032;-76
2023/01/08 11:28:49;;;;;;;11.82;2.03;;;13.10;84.50;;;;;;5066832;28;20035;-78
2023/01/08 11:31:24;;;;;;;10.35;1.30;;;13.10;84.60;;;;;;5066662;28;20044;-76
2023/01/08 11:33:57;;;;;;;10.63;1.45;;;13.20;84.40;;;;;;5059238;28;20029;-76
2023/01/08 11:36:33;;;;;;;17.88;1.98;;;13.20;84.60;;;;;;5049092;28;20025;-78
2023/01/08 11:39:00;;;;;;;14.23;2.08;;;13.30;84.60;;;;;;5049051;28;20440;-77
2023/01/08 11:41:55;;;;;;;21.60;2.08;;;13.30;84.60;;;;;;5046782;28;20477;-76
2023/01/08 11:44:38;;;;;;;14.82;2.08;;;13.30;85.00;;;;;;5046379;28;20434;-81
2023/01/08 11:47:18;;;;;;;13.75;2.28;;;13.30;85.10;;;;;;5047185;28;20835;-77
2023/01/08 11:49:49;;;;;;;16.17;1.80;;;13.30;85.00;;;;;;5047804;28;20505;-80
2023/01/08 11:52:37;;;;;;;10.70;1.48;;;13.30;85.10;;;;;;5047033;28;20035;-78
2023/01/08 11:55:26;;;;;;;13.68;1.88;;;13.40;85.30;;;;;;5048283;28;20052;-78
2023/01/08 11:58:21;;;;;;;8.40;1.50;;;13.40;85.10;;;;;;5048327;28;20028;-76
2023/01/08 12:00:50;;;;;;;15.25;1.90;;;13.40;85.40;;;;;;5057409;28;20031;-77
2023/01/08 12:03:53;;;;;;;13.38;1.77;;;13.50;85.30;;;;;;5071848;28;20036;-77
2023/01/08 12:06:42;;;;;;;9.63;1.67;;;13.60;85.40;;;;;;5064498;28;20047;-77
2023/01/08 12:09:08;;;;;;;9.18;1.55;;;13.60;85.00;;;;;;5060179;28;20112;-77
2023/01/08 12:11:46;;;;;;;7.95;1.90;;;13.70;85.20;;;;;;5071334;28;20454;-80
2023/01/08 12:14:39;;;;;;;13.52;1.90;;;13.70;85.20;;;;;;5069909;28;20029;-78
2023/01/08 12:17:30;;;;;;;7.97;1.60;;;13.70;84.90;;;;;;5071389;28;20021;-77
2023/01/08 12:20:13;;;;;;;8.77;1.58;;;13.80;84.90;;;;;;5069392;28;20021;-77
2023/01/08 12:23:15;;;;;;;11.70;2.17;;;13.90;84.90;;;;;;5070714;28;20081;-77
2023/01/08 12:25:59;;;;;;;11.13;1.77;;;13.90;85.00;;;;;;5021942;28;20117;-78
2023/01/08 12:29:03;;;;;;;8.45;1.80;;;14.00;85.10;;;;;;5049422;28;20033;-78
2023/01/08 12:31:34;;;;;;;16.00;2.25;;;14.10;85.70;;;;;;5049132;28;20370;-78
2023/01/08 12:34:19;;;;;;;10.63;1.70;;;14.20;86.00;;;;;;5050320;28;20036;-77
2023/01/08 12:36:49;;;;;;;10.70;2.22;;;14.30;86.30;;;;;;5050559;28;20493;-76
2023/01/08 12:39:26;;;;;;;7.78;2.08;;;14.40;86.40;;;;;;5049214;28;20029;-77
2023/01/08 12:41:57;;;;;;;9.25;1.75;;;14.50;86.30;;;;;;5048790;28;20490;-77
2023/01/08 12:44:27;;;;;;;8.43;1.50;;;14.60;86.40;;;;;;5048871;28;20040;-81
2023/01/08 12:46:57;;;;;;;12.95;2.40;;;14.60;86.60;;;;;;5057500;28;20427;-78
2023/01/08 12:49:47;;;;;;;8.82;2.00;;;14.60;86.40;;;;;;5050938;28;20108;-79
2023/01/08 12:52:21;;;;;;;7.82;2.00;;;14.60;86.50;;;;;;5049908;28;20056;-79
2023/01/08 12:55:01;;;;;;;7.47;1.73;;;14.50;86.70;;;;;;5065962;28;20539;-78
2023/01/08 12:57:37;;;;;;;8.80;2.23;;;14.50;86.70;;;;;;5069382;28;20036;-77